sensor_id;sensor_type;location;lat;lon;timestamp;P1;durP1;ratioP1;P2;durP2;ratioP2
11935;SDS011;6027;48.576;9.180;2022-08-19T00:04:08;16.95;;;15.32;;
11935;SDS011;6027;48.576;9.180;2022-08-19T00:06:36;18.00;;;16.42;;
11935;SDS011;6027;48.576;9.180;2022-08-19T00:09:02;16.98;;;15.60;;
11935;SDS011;6027;48.576;9.180;2022-08-19T00:11:30;18.67;;;17.17;;
11935;SDS011;6027;48.576;9.180;2022-08-19T00:13:56;18.58;;;16.98;;
11935;SDS011;6027;48.576;9.180;2022-08-19T00:16:23;17.17;;;15.65;;
11935;SDS011;6027;48.576;9.180;2022-08-19T00:18:50;17.25;;;15.75;;
11935;SDS011;6027;48.576;9.180;2022-08-19T00:21:15;17.58;;;16.00;;
11935;SDS011;6027;48.576;9.180;2022-08-19T00:23:42;17.73;;;16.02;;
11935;SDS011;6027;48.576;9.180;2022-08-19T00:26:08;16.83;;;15.13;;
11935;SDS011;6027;48.576;9.180;2022-08-19T00:28:35;16.27;;;14.88;;
11935;SDS011;6027;48.576;9.180;2022-08-19T00:31:01;16.63;;;15.13;;
11935;SDS011;6027;48.576;9.180;2022-08-19T00:33:30;16.77;;;15.25;;
11935;SDS011;6027;48.576;9.180;2022-08-19T00:36:03;16.17;;;14.65;;
11935;SDS011;6027;48.576;9.180;2022-08-19T00:38:31;16.70;;;15.27;;
11935;SDS011;6027;48.576;9.180;2022-08-19T00:40:57;16.73;;;15.18;;
11935;SDS011;6027;48.576;9.180;2022-08-19T00:43:24;17.00;;;14.77;;
11935;SDS011;6027;48.576;9.180;2022-08-19T00:45:51;17.13;;;14.40;;
11935;SDS011;6027;48.576;9.180;2022-08-19T00:48:17;15.98;;;14.55;;
11935;SDS011;6027;48.576;9.180;2022-08-19T00:50:44;16.25;;;14.50;;
11935;SDS011;6027;48.576;9.180;2022-08-19T00:53:11;16.80;;;15.30;;
11935;SDS011;6027;48.576;9.180;2022-08-19T00:55:40;17.30;;;15.27;;
11935;SDS011;6027;48.576;9.180;2022-08-19T00:58:10;16.52;;;15.13;;
11935;SDS011;6027;48.576;9.180;2022-08-19T01:00:38;16.60;;;15.00;;
11935;SDS011;6027;48.576;9.180;2022-08-19T01:03:08;16.92;;;15.15;;
11935;SDS011;6027;48.576;9.180;2022-08-19T01:05:39;16.15;;;14.68;;
11935;SDS011;6027;48.576;9.180;2022-08-19T01:08:07;18.02;;;16.15;;
11935;SDS011;6027;48.576;9.180;2022-08-19T01:10:35;19.13;;;17.20;;
11935;SDS011;6027;48.576;9.180;2022-08-19T01:13:07;19.55;;;17.55;;
11935;SDS011;6027;48.576;9.180;2022-08-19T01:15:39;19.83;;;17.92;;
11935;SDS011;6027;48.576;9.180;2022-08-19T01:18:09;21.15;;;17.25;;
11935;SDS011;6027;48.576;9.180;2022-08-19T01:20:38;18.98;;;17.27;;
11935;SDS011;6027;48.576;9.180;2022-08-19T01:23:04;20.08;;;18.10;;
11935;SDS011;6027;48.576;9.180;2022-08-19T01:25:32;21.05;;;18.98;;
11935;SDS011;6027;48.576;9.180;2022-08-19T01:28:04;20.10;;;18.15;;
11935;SDS011;6027;48.576;9.180;2022-08-19T01:30:31;22.02;;;19.38;;
11935;SDS011;6027;48.576;9.180;2022-08-19T01:32:58;20.75;;;18.55;;
11935;SDS011;6027;48.576;9.180;2022-08-19T01:35:28;20.65;;;18.75;;
11935;SDS011;6027;48.576;9.180;2022-08-19T01:37:57;18.92;;;17.23;;
11935;SDS011;6027;48.576;9.180;2022-08-19T01:40:29;19.35;;;17.65;;
11935;SDS011;6027;48.576;9.180;2022-08-19T01:42:55;20.17;;;18.17;;
11935;SDS011;6027;48.576;9.180;2022-08-19T01:45:23;19.95;;;18.05;;
11935;SDS011;6027;48.576;9.180;2022-08-19T01:47:49;19.40;;;17.40;;
11935;SDS011;6027;48.576;9.180;2022-08-19T01:50:15;21.00;;;19.08;;
11935;SDS011;6027;48.576;9.180;2022-08-19T01:52:41;20.27;;;18.27;;
11935;SDS011;6027;48.576;9.180;2022-08-19T01:55:09;21.30;;;19.13;;
11935;SDS011;6027;48.576;9.180;2022-08-19T01:57:38;21.75;;;19.75;;
11935;SDS011;6027;48.576;9.180;2022-08-19T02:00:06;22.05;;;19.95;;
11935;SDS011;6027;48.576;9.180;2022-08-19T02:02:36;21.63;;;19.27;;
11935;SDS011;6027;48.576;9.180;2022-08-19T02:05:02;23.02;;;19.48;;
11935;SDS011;6027;48.576;9.180;2022-08-19T02:07:30;20.88;;;18.92;;
11935;SDS011;6027;48.576;9.180;2022-08-19T02:09:55;21.58;;;19.38;;
11935;SDS011;6027;48.576;9.180;2022-08-19T02:12:21;20.58;;;18.58;;
11935;SDS011;6027;48.576;9.180;2022-08-19T02:14:47;21.08;;;19.08;;
11935;SDS011;6027;48.576;9.180;2022-08-19T02:17:12;21.73;;;19.52;;
11935;SDS011;6027;48.576;9.180;2022-08-19T02:19:38;20.83;;;18.80;;
11935;SDS011;6027;48.576;9.180;2022-08-19T02:22:04;20.40;;;18.40;;
11935;SDS011;6027;48.576;9.180;2022-08-19T02:24:30;20.92;;;18.80;;
11935;SDS011;6027;48.576;9.180;2022-08-19T02:26:56;20.35;;;18.42;;
11935;SDS011;6027;48.576;9.180;2022-08-19T02:29:22;22.30;;;17.98;;
11935;SDS011;6027;48.576;9.180;2022-08-19T02:31:48;19.85;;;17.98;;
11935;SDS011;6027;48.576;9.180;2022-08-19T02:34:13;21.10;;;18.92;;
11935;SDS011;6027;48.576;9.180;2022-08-19T02:36:39;21.77;;;19.35;;
11935;SDS011;6027;48.576;9.180;2022-08-19T02:39:04;20.98;;;18.98;;
11935;SDS011;6027;48.576;9.180;2022-08-19T02:41:31;20.70;;;18.77;;
11935;SDS011;6027;48.576;9.180;2022-08-19T02:43:58;22.02;;;19.85;;
11935;SDS011;6027;48.576;9.180;2022-08-19T02:46:30;21.70;;;19.50;;
11935;SDS011;6027;48.576;9.180;2022-08-19T02:49:01;21.38;;;19.27;;
11935;SDS011;6027;48.576;9.180;2022-08-19T02:51:34;21.30;;;19.25;;
11935;SDS011;6027;48.576;9.180;2022-08-19T02:54:02;21.10;;;19.10;;
11935;SDS011;6027;48.576;9.180;2022-08-19T02:56:29;21.10;;;19.00;;
11935;SDS011;6027;48.576;9.180;2022-08-19T02:58:56;21.88;;;19.67;;
11935;SDS011;6027;48.576;9.180;2022-08-19T03:01:23;20.90;;;18.90;;
11935;SDS011;6027;48.576;9.180;2022-08-19T03:03:57;22.50;;;19.98;;
11935;SDS011;6027;48.576;9.180;2022-08-19T03:06:24;22.58;;;20.23;;
11935;SDS011;6027;48.576;9.180;2022-08-19T03:08:50;21.13;;;18.92;;
11935;SDS011;6027;48.576;9.180;2022-08-19T03:11:18;20.95;;;18.75;;
11935;SDS011;6027;48.576;9.180;2022-08-19T03:13:45;21.23;;;19.13;;
11935;SDS011;6027;48.576;9.180;2022-08-19T03:16:14;21.20;;;18.98;;
11935;SDS011;6027;48.576;9.180;2022-08-19T03:18:41;20.40;;;18.40;;
11935;SDS011;6027;48.576;9.180;2022-08-19T03:21:06;19.63;;;17.80;;
11935;SDS011;6027;48.576;9.180;2022-08-19T03:23:32;20.45;;;18.17;;
11935;SDS011;6027;48.576;9.180;2022-08-19T03:25:58;22.15;;;19.95;;
11935;SDS011;6027;48.576;9.180;2022-08-19T03:28:30;21.00;;;19.08;;
11935;SDS011;6027;48.576;9.180;2022-08-19T03:33:24;22.85;;;20.75;;
11935;SDS011;6027;48.576;9.180;2022-08-19T03:36:07;21.30;;;19.23;;
11935;SDS011;6027;48.576;9.180;2022-08-19T03:38:47;20.27;;;18.38;;
11935;SDS011;6027;48.576;9.180;2022-08-19T03:41:18;20.05;;;18.15;;
11935;SDS011;6027;48.576;9.180;2022-08-19T03:43:45;19.95;;;18.05;;
11935;SDS011;6027;48.576;9.180;2022-08-19T03:46:13;20.45;;;18.45;;
11935;SDS011;6027;48.576;9.180;2022-08-19T03:48:41;20.67;;;18.70;;
11935;SDS011;6027;48.576;9.180;2022-08-19T03:51:15;20.50;;;18.40;;
11935;SDS011;6027;48.576;9.180;2022-08-19T03:53:42;21.13;;;19.13;;
11935;SDS011;6027;48.576;9.180;2022-08-19T03:56:08;20.23;;;18.23;;
11935;SDS011;6027;48.576;9.180;2022-08-19T03:58:35;20.33;;;18.30;;
11935;SDS011;6027;48.576;9.180;2022-08-19T04:01:06;20.67;;;18.67;;
11935;SDS011;6027;48.576;9.180;2022-08-19T04:03:36;21.10;;;19.05;;
11935;SDS011;6027;48.576;9.180;2022-08-19T04:06:10;20.08;;;18.17;;
11935;SDS011;6027;48.576;9.180;2022-08-19T04:08:41;21.02;;;19.00;;
11935;SDS011;6027;48.576;9.180;2022-08-19T04:11:11;21.52;;;19.25;;
11935;SDS011;6027;48.576;9.180;2022-08-19T04:13:39;21.45;;;19.05;;
11935;SDS011;6027;48.576;9.180;2022-08-19T04:16:05;22.10;;;19.70;;
11935;SDS011;6027;48.576;9.180;2022-08-19T04:18:35;22.00;;;19.90;;
11935;SDS011;6027;48.576;9.180;2022-08-19T04:21:01;21.27;;;19.08;;
11935;SDS011;6027;48.576;9.180;2022-08-19T04:23:27;20.90;;;18.90;;
11935;SDS011;6027;48.576;9.180;2022-08-19T04:25:55;22.10;;;19.92;;
11935;SDS011;6027;48.576;9.180;2022-08-19T04:28:22;22.17;;;20.00;;
11935;SDS011;6027;48.576;9.180;2022-08-19T04:30:49;22.00;;;19.63;;
11935;SDS011;6027;48.576;9.180;2022-08-19T04:33:17;22.45;;;20.05;;
11935;SDS011;6027;48.576;9.180;2022-08-19T04:35:46;22.77;;;20.45;;
11935;SDS011;6027;48.576;9.180;2022-08-19T04:38:14;23.08;;;20.77;;
11935;SDS011;6027;48.576;9.180;2022-08-19T04:40:45;22.25;;;20.10;;
11935;SDS011;6027;48.576;9.180;2022-08-19T04:43:31;23.05;;;20.73;;
11935;SDS011;6027;48.576;9.180;2022-08-19T04:45:58;23.00;;;20.60;;
11935;SDS011;6027;48.576;9.180;2022-08-19T04:48:23;22.67;;;20.42;;
11935;SDS011;6027;48.576;9.180;2022-08-19T04:50:52;23.52;;;21.13;;
11935;SDS011;6027;48.576;9.180;2022-08-19T04:53:30;22.75;;;20.55;;
11935;SDS011;6027;48.576;9.180;2022-08-19T04:55:58;22.17;;;20.08;;
11935;SDS011;6027;48.576;9.180;2022-08-19T04:58:27;22.92;;;20.50;;
11935;SDS011;6027;48.576;9.180;2022-08-19T05:00:53;24.55;;;22.10;;
11935;SDS011;6027;48.576;9.180;2022-08-19T05:03:19;23.80;;;21.20;;
11935;SDS011;6027;48.576;9.180;2022-08-19T05:05:45;22.48;;;20.27;;
11935;SDS011;6027;48.576;9.180;2022-08-19T05:08:16;23.63;;;21.33;;
11935;SDS011;6027;48.576;9.180;2022-08-19T05:10:45;23.83;;;21.38;;
11935;SDS011;6027;48.576;9.180;2022-08-19T05:13:16;22.80;;;20.42;;
11935;SDS011;6027;48.576;9.180;2022-08-19T05:15:44;24.23;;;21.77;;
11935;SDS011;6027;48.576;9.180;2022-08-19T05:18:18;26.00;;;21.50;;
11935;SDS011;6027;48.576;9.180;2022-08-19T05:21:05;23.42;;;21.17;;
11935;SDS011;6027;48.576;9.180;2022-08-19T05:23:51;24.25;;;21.75;;
11935;SDS011;6027;48.576;9.180;2022-08-19T05:26:16;24.80;;;22.27;;
11935;SDS011;6027;48.576;9.180;2022-08-19T05:28:42;25.88;;;23.08;;
11935;SDS011;6027;48.576;9.180;2022-08-19T05:31:07;26.33;;;23.70;;
11935;SDS011;6027;48.576;9.180;2022-08-19T05:33:32;26.63;;;23.92;;
11935;SDS011;6027;48.576;9.180;2022-08-19T05:35:58;25.13;;;22.70;;
11935;SDS011;6027;48.576;9.180;2022-08-19T05:38:24;26.88;;;24.17;;
11935;SDS011;6027;48.576;9.180;2022-08-19T05:40:51;29.42;;;24.50;;
11935;SDS011;6027;48.576;9.180;2022-08-19T05:43:16;27.00;;;24.30;;
11935;SDS011;6027;48.576;9.180;2022-08-19T05:45:42;27.77;;;24.75;;
11935;SDS011;6027;48.576;9.180;2022-08-19T05:48:09;25.83;;;23.17;;
11935;SDS011;6027;48.576;9.180;2022-08-19T05:50:36;27.10;;;23.88;;
11935;SDS011;6027;48.576;9.180;2022-08-19T05:53:03;27.80;;;24.65;;
11935;SDS011;6027;48.576;9.180;2022-08-19T05:55:28;28.52;;;24.10;;
11935;SDS011;6027;48.576;9.180;2022-08-19T05:57:54;29.42;;;25.48;;
11935;SDS011;6027;48.576;9.180;2022-08-19T06:00:20;28.08;;;25.13;;
11935;SDS011;6027;48.576;9.180;2022-08-19T06:02:45;29.55;;;26.45;;
11935;SDS011;6027;48.576;9.180;2022-08-19T06:05:11;28.23;;;25.38;;
11935;SDS011;6027;48.576;9.180;2022-08-19T06:07:37;29.40;;;26.42;;
11935;SDS011;6027;48.576;9.180;2022-08-19T06:10:04;28.73;;;25.63;;
11935;SDS011;6027;48.576;9.180;2022-08-19T06:12:33;27.48;;;24.63;;
11935;SDS011;6027;48.576;9.180;2022-08-19T06:15:04;28.70;;;25.67;;
11935;SDS011;6027;48.576;9.180;2022-08-19T06:17:32;30.98;;;26.10;;
11935;SDS011;6027;48.576;9.180;2022-08-19T06:20:00;28.60;;;25.63;;
11935;SDS011;6027;48.576;9.180;2022-08-19T06:22:26;29.10;;;26.10;;
11935;SDS011;6027;48.576;9.180;2022-08-19T06:24:53;29.35;;;25.05;;
11935;SDS011;6027;48.576;9.180;2022-08-19T06:27:19;26.88;;;24.02;;
11935;SDS011;6027;48.576;9.180;2022-08-19T06:29:45;28.48;;;25.45;;
11935;SDS011;6027;48.576;9.180;2022-08-19T06:32:12;26.80;;;24.00;;
11935;SDS011;6027;48.576;9.180;2022-08-19T06:34:41;28.95;;;26.00;;
11935;SDS011;6027;48.576;9.180;2022-08-19T06:37:08;27.98;;;24.92;;
11935;SDS011;6027;48.576;9.180;2022-08-19T06:39:35;29.60;;;26.25;;
11935;SDS011;6027;48.576;9.180;2022-08-19T06:42:03;30.50;;;27.33;;
11935;SDS011;6027;48.576;9.180;2022-08-19T06:44:33;28.00;;;25.00;;
11935;SDS011;6027;48.576;9.180;2022-08-19T06:47:00;30.05;;;26.33;;
11935;SDS011;6027;48.576;9.180;2022-08-19T06:49:27;30.77;;;27.55;;
11935;SDS011;6027;48.576;9.180;2022-08-19T06:51:56;32.90;;;27.77;;
11935;SDS011;6027;48.576;9.180;2022-08-19T06:54:22;29.48;;;25.80;;
11935;SDS011;6027;48.576;9.180;2022-08-19T06:56:48;29.23;;;26.27;;
11935;SDS011;6027;48.576;9.180;2022-08-19T07:01:42;33.40;;;27.67;;
11935;SDS011;6027;48.576;9.180;2022-08-19T07:04:12;31.33;;;27.98;;
11935;SDS011;6027;48.576;9.180;2022-08-19T07:06:43;35.08;;;28.02;;
11935;SDS011;6027;48.576;9.180;2022-08-19T07:09:09;31.27;;;27.48;;
11935;SDS011;6027;48.576;9.180;2022-08-19T07:11:43;30.83;;;27.58;;
11935;SDS011;6027;48.576;9.180;2022-08-19T07:14:10;32.25;;;28.58;;
11935;SDS011;6027;48.576;9.180;2022-08-19T07:16:35;31.42;;;28.05;;
11935;SDS011;6027;48.576;9.180;2022-08-19T07:19:01;29.75;;;26.65;;
11935;SDS011;6027;48.576;9.180;2022-08-19T07:21:27;31.75;;;27.77;;
11935;SDS011;6027;48.576;9.180;2022-08-19T07:23:54;30.02;;;26.77;;
11935;SDS011;6027;48.576;9.180;2022-08-19T07:26:28;28.90;;;25.90;;
11935;SDS011;6027;48.576;9.180;2022-08-19T07:28:57;31.42;;;28.13;;
11935;SDS011;6027;48.576;9.180;2022-08-19T07:31:24;31.70;;;28.30;;
11935;SDS011;6027;48.576;9.180;2022-08-19T07:33:52;31.50;;;28.10;;
11935;SDS011;6027;48.576;9.180;2022-08-19T07:36:22;31.50;;;28.05;;
11935;SDS011;6027;48.576;9.180;2022-08-19T07:38:50;31.38;;;28.08;;
11935;SDS011;6027;48.576;9.180;2022-08-19T07:41:23;31.40;;;28.00;;
11935;SDS011;6027;48.576;9.180;2022-08-19T07:43:50;29.50;;;26.38;;
11935;SDS011;6027;48.576;9.180;2022-08-19T07:46:17;31.48;;;26.73;;
11935;SDS011;6027;48.576;9.180;2022-08-19T07:48:43;30.92;;;27.70;;
11935;SDS011;6027;48.576;9.180;2022-08-19T07:51:13;29.27;;;26.42;;
11935;SDS011;6027;48.576;9.180;2022-08-19T07:53:41;29.70;;;26.58;;
11935;SDS011;6027;48.576;9.180;2022-08-19T07:56:08;29.83;;;26.60;;
11935;SDS011;6027;48.576;9.180;2022-08-19T07:58:36;30.33;;;26.70;;
11935;SDS011;6027;48.576;9.180;2022-08-19T08:01:04;30.67;;;26.48;;
11935;SDS011;6027;48.576;9.180;2022-08-19T08:03:31;28.50;;;25.67;;
11935;SDS011;6027;48.576;9.180;2022-08-19T08:06:15;29.70;;;26.50;;
11935;SDS011;6027;48.576;9.180;2022-08-19T08:08:59;28.48;;;25.45;;
11935;SDS011;6027;48.576;9.180;2022-08-19T08:14:04;28.60;;;25.65;;
11935;SDS011;6027;48.576;9.180;2022-08-19T08:16:35;28.50;;;25.17;;
11935;SDS011;6027;48.576;9.180;2022-08-19T08:19:03;27.80;;;24.92;;
11935;SDS011;6027;48.576;9.180;2022-08-19T08:21:30;28.58;;;25.88;;
11935;SDS011;6027;48.576;9.180;2022-08-19T08:23:56;31.33;;;25.55;;
11935;SDS011;6027;48.576;9.180;2022-08-19T08:26:22;29.13;;;25.40;;
11935;SDS011;6027;48.576;9.180;2022-08-19T08:28:48;26.52;;;23.65;;
11935;SDS011;6027;48.576;9.180;2022-08-19T08:31:15;26.65;;;23.95;;
11935;SDS011;6027;48.576;9.180;2022-08-19T08:33:40;30.02;;;25.48;;
11935;SDS011;6027;48.576;9.180;2022-08-19T08:36:07;29.17;;;26.15;;
11935;SDS011;6027;48.576;9.180;2022-08-19T08:38:36;27.75;;;24.85;;
11935;SDS011;6027;48.576;9.180;2022-08-19T08:41:06;28.02;;;25.13;;
11935;SDS011;6027;48.576;9.180;2022-08-19T08:43:45;27.75;;;24.95;;
11935;SDS011;6027;48.576;9.180;2022-08-19T08:46:13;27.98;;;25.05;;
11935;SDS011;6027;48.576;9.180;2022-08-19T08:52:13;28.00;;;24.88;;
11935;SDS011;6027;48.576;9.180;2022-08-19T08:54:53;27.10;;;24.25;;
11935;SDS011;6027;48.576;9.180;2022-08-19T08:57:39;27.42;;;24.65;;
11935;SDS011;6027;48.576;9.180;2022-08-19T09:00:32;27.73;;;24.77;;
11935;SDS011;6027;48.576;9.180;2022-08-19T09:03:01;28.00;;;25.10;;
11935;SDS011;6027;48.576;9.180;2022-08-19T09:05:57;29.27;;;26.27;;
11935;SDS011;6027;48.576;9.180;2022-08-19T09:08:23;28.52;;;25.63;;
11935;SDS011;6027;48.576;9.180;2022-08-19T09:11:12;29.00;;;25.92;;
11935;SDS011;6027;48.576;9.180;2022-08-19T09:14:02;29.15;;;26.05;;
11935;SDS011;6027;48.576;9.180;2022-08-19T09:16:30;29.08;;;25.95;;
11935;SDS011;6027;48.576;9.180;2022-08-19T09:18:57;33.47;;;26.42;;
11935;SDS011;6027;48.576;9.180;2022-08-19T09:21:27;30.20;;;26.85;;
11935;SDS011;6027;48.576;9.180;2022-08-19T09:23:53;28.40;;;25.05;;
11935;SDS011;6027;48.576;9.180;2022-08-19T09:26:20;31.10;;;27.23;;
11935;SDS011;6027;48.576;9.180;2022-08-19T09:28:47;28.15;;;25.35;;
11935;SDS011;6027;48.576;9.180;2022-08-19T09:31:16;26.63;;;23.83;;
11935;SDS011;6027;48.576;9.180;2022-08-19T09:33:44;30.95;;;27.35;;
11935;SDS011;6027;48.576;9.180;2022-08-19T09:36:10;30.30;;;26.40;;
11935;SDS011;6027;48.576;9.180;2022-08-19T09:38:38;31.98;;;28.67;;
11935;SDS011;6027;48.576;9.180;2022-08-19T09:41:09;31.42;;;28.00;;
11935;SDS011;6027;48.576;9.180;2022-08-19T09:43:39;32.28;;;28.80;;
11935;SDS011;6027;48.576;9.180;2022-08-19T09:46:06;32.97;;;29.48;;
11935;SDS011;6027;48.576;9.180;2022-08-19T09:48:34;32.75;;;29.25;;
11935;SDS011;6027;48.576;9.180;2022-08-19T09:51:13;31.70;;;28.20;;
11935;SDS011;6027;48.576;9.180;2022-08-19T09:53:41;34.08;;;29.52;;
11935;SDS011;6027;48.576;9.180;2022-08-19T09:56:10;33.35;;;29.25;;
11935;SDS011;6027;48.576;9.180;2022-08-19T09:58:37;31.33;;;27.98;;
11935;SDS011;6027;48.576;9.180;2022-08-19T10:01:03;32.22;;;28.92;;
11935;SDS011;6027;48.576;9.180;2022-08-19T10:03:30;31.27;;;28.08;;
11935;SDS011;6027;48.576;9.180;2022-08-19T10:05:58;33.55;;;29.63;;
11935;SDS011;6027;48.576;9.180;2022-08-19T10:08:26;34.55;;;30.35;;
11935;SDS011;6027;48.576;9.180;2022-08-19T10:10:56;33.53;;;29.45;;
11935;SDS011;6027;48.576;9.180;2022-08-19T10:13:23;34.10;;;30.33;;
11935;SDS011;6027;48.576;9.180;2022-08-19T10:15:54;37.55;;;31.75;;
11935;SDS011;6027;48.576;9.180;2022-08-19T10:18:27;34.15;;;30.40;;
11935;SDS011;6027;48.576;9.180;2022-08-19T10:21:01;38.00;;;32.58;;
11935;SDS011;6027;48.576;9.180;2022-08-19T10:23:32;36.80;;;31.27;;
11935;SDS011;6027;48.576;9.180;2022-08-19T10:25:59;35.08;;;31.23;;
11935;SDS011;6027;48.576;9.180;2022-08-19T10:28:28;37.97;;;31.75;;
11935;SDS011;6027;48.576;9.180;2022-08-19T10:30:53;35.97;;;31.52;;
11935;SDS011;6027;48.576;9.180;2022-08-19T10:33:19;39.03;;;32.47;;
11935;SDS011;6027;48.576;9.180;2022-08-19T10:35:45;34.13;;;30.42;;
11935;SDS011;6027;48.576;9.180;2022-08-19T10:38:11;34.83;;;31.08;;
11935;SDS011;6027;48.576;9.180;2022-08-19T10:40:37;36.13;;;31.88;;
11935;SDS011;6027;48.576;9.180;2022-08-19T10:43:03;36.95;;;31.63;;
11935;SDS011;6027;48.576;9.180;2022-08-19T10:45:28;34.45;;;30.55;;
11935;SDS011;6027;48.576;9.180;2022-08-19T10:47:54;40.45;;;31.83;;
11935;SDS011;6027;48.576;9.180;2022-08-19T10:50:20;37.38;;;32.47;;
11935;SDS011;6027;48.576;9.180;2022-08-19T10:53:05;36.17;;;30.90;;
11935;SDS011;6027;48.576;9.180;2022-08-19T10:55:33;40.83;;;33.10;;
11935;SDS011;6027;48.576;9.180;2022-08-19T10:58:19;41.22;;;32.55;;
11935;SDS011;6027;48.576;9.180;2022-08-19T11:00:52;43.15;;;34.28;;
11935;SDS011;6027;48.576;9.180;2022-08-19T11:03:20;42.25;;;34.53;;
11935;SDS011;6027;48.576;9.180;2022-08-19T11:05:45;44.17;;;33.75;;
11935;SDS011;6027;48.576;9.180;2022-08-19T11:08:11;41.38;;;34.38;;
11935;SDS011;6027;48.576;9.180;2022-08-19T11:10:41;44.35;;;34.45;;
11935;SDS011;6027;48.576;9.180;2022-08-19T11:13:07;43.25;;;34.90;;
11935;SDS011;6027;48.576;9.180;2022-08-19T11:15:33;46.35;;;36.15;;
11935;SDS011;6027;48.576;9.180;2022-08-19T11:17:59;49.50;;;36.50;;
11935;SDS011;6027;48.576;9.180;2022-08-19T11:20:24;43.42;;;34.35;;
11935;SDS011;6027;48.576;9.180;2022-08-19T11:22:51;38.45;;;33.28;;
11935;SDS011;6027;48.576;9.180;2022-08-19T11:25:18;41.92;;;33.15;;
11935;SDS011;6027;48.576;9.180;2022-08-19T11:27:43;42.00;;;32.47;;
11935;SDS011;6027;48.576;9.180;2022-08-19T11:30:10;39.33;;;33.63;;
11935;SDS011;6027;48.576;9.180;2022-08-19T11:32:37;45.47;;;35.90;;
11935;SDS011;6027;48.576;9.180;2022-08-19T11:35:03;43.40;;;35.85;;
11935;SDS011;6027;48.576;9.180;2022-08-19T11:37:29;45.55;;;35.80;;
11935;SDS011;6027;48.576;9.180;2022-08-19T11:39:54;49.35;;;35.78;;
11935;SDS011;6027;48.576;9.180;2022-08-19T11:42:20;44.58;;;36.38;;
11935;SDS011;6027;48.576;9.180;2022-08-19T11:45:04;43.97;;;35.63;;
11935;SDS011;6027;48.576;9.180;2022-08-19T11:47:30;45.88;;;34.83;;
11935;SDS011;6027;48.576;9.180;2022-08-19T11:49:56;41.45;;;34.47;;
11935;SDS011;6027;48.576;9.180;2022-08-19T11:52:22;49.80;;;36.40;;
11935;SDS011;6027;48.576;9.180;2022-08-19T11:54:47;40.97;;;34.22;;
11935;SDS011;6027;48.576;9.180;2022-08-19T11:57:13;43.45;;;35.33;;
11935;SDS011;6027;48.576;9.180;2022-08-19T11:59:41;44.08;;;35.13;;
11935;SDS011;6027;48.576;9.180;2022-08-19T12:02:07;52.28;;;36.58;;
11935;SDS011;6027;48.576;9.180;2022-08-19T12:04:33;45.63;;;36.08;;
11935;SDS011;6027;48.576;9.180;2022-08-19T12:06:59;43.38;;;35.22;;
11935;SDS011;6027;48.576;9.180;2022-08-19T12:09:25;52.63;;;37.53;;
11935;SDS011;6027;48.576;9.180;2022-08-19T12:11:50;50.72;;;36.97;;
11935;SDS011;6027;48.576;9.180;2022-08-19T12:14:16;40.72;;;34.95;;
11935;SDS011;6027;48.576;9.180;2022-08-19T12:16:43;44.33;;;35.58;;
11935;SDS011;6027;48.576;9.180;2022-08-19T12:19:11;47.55;;;35.13;;
11935;SDS011;6027;48.576;9.180;2022-08-19T12:21:36;46.90;;;35.00;;
11935;SDS011;6027;48.576;9.180;2022-08-19T12:24:03;38.63;;;33.85;;
11935;SDS011;6027;48.576;9.180;2022-08-19T12:26:30;42.92;;;35.63;;
11935;SDS011;6027;48.576;9.180;2022-08-19T12:28:56;45.08;;;36.38;;
11935;SDS011;6027;48.576;9.180;2022-08-19T12:31:25;42.30;;;35.90;;
11935;SDS011;6027;48.576;9.180;2022-08-19T12:33:51;48.08;;;38.00;;
11935;SDS011;6027;48.576;9.180;2022-08-19T12:36:17;46.50;;;37.47;;
11935;SDS011;6027;48.576;9.180;2022-08-19T12:38:43;48.72;;;38.30;;
11935;SDS011;6027;48.576;9.180;2022-08-19T12:41:11;50.17;;;37.20;;
11935;SDS011;6027;48.576;9.180;2022-08-19T12:43:38;43.90;;;36.83;;
11935;SDS011;6027;48.576;9.180;2022-08-19T12:46:04;41.80;;;35.53;;
11935;SDS011;6027;48.576;9.180;2022-08-19T12:48:31;44.38;;;33.58;;
11935;SDS011;6027;48.576;9.180;2022-08-19T12:50:57;38.88;;;33.47;;
11935;SDS011;6027;48.576;9.180;2022-08-19T12:53:23;37.40;;;32.53;;
11935;SDS011;6027;48.576;9.180;2022-08-19T12:55:58;37.20;;;30.48;;
11935;SDS011;6027;48.576;9.180;2022-08-19T12:58:25;34.85;;;31.15;;
11935;SDS011;6027;48.576;9.180;2022-08-19T13:00:52;34.65;;;30.88;;
11935;SDS011;6027;48.576;9.180;2022-08-19T13:03:17;34.33;;;30.60;;
11935;SDS011;6027;48.576;9.180;2022-08-19T13:05:43;33.50;;;30.10;;
11935;SDS011;6027;48.576;9.180;2022-08-19T13:08:08;32.88;;;29.33;;
11935;SDS011;6027;48.576;9.180;2022-08-19T13:10:34;37.60;;;30.75;;
11935;SDS011;6027;48.576;9.180;2022-08-19T13:13:04;35.17;;;31.35;;
11935;SDS011;6027;48.576;9.180;2022-08-19T13:15:33;34.33;;;30.70;;
11935;SDS011;6027;48.576;9.180;2022-08-19T13:18:00;33.40;;;29.98;;
11935;SDS011;6027;48.576;9.180;2022-08-19T13:20:26;37.85;;;33.55;;
11935;SDS011;6027;48.576;9.180;2022-08-19T13:22:51;37.17;;;32.92;;
11935;SDS011;6027;48.576;9.180;2022-08-19T13:25:17;36.78;;;32.72;;
11935;SDS011;6027;48.576;9.180;2022-08-19T13:27:45;37.65;;;32.20;;
11935;SDS011;6027;48.576;9.180;2022-08-19T13:30:13;35.70;;;31.83;;
11935;SDS011;6027;48.576;9.180;2022-08-19T13:32:59;33.60;;;29.88;;
11935;SDS011;6027;48.576;9.180;2022-08-19T13:35:37;33.22;;;29.80;;
11935;SDS011;6027;48.576;9.180;2022-08-19T13:38:04;31.70;;;28.60;;
11935;SDS011;6027;48.576;9.180;2022-08-19T13:40:30;30.88;;;27.65;;
11935;SDS011;6027;48.576;9.180;2022-08-19T13:42:58;31.42;;;28.15;;
11935;SDS011;6027;48.576;9.180;2022-08-19T13:45:26;31.83;;;28.67;;
11935;SDS011;6027;48.576;9.180;2022-08-19T13:47:53;32.25;;;28.92;;
11935;SDS011;6027;48.576;9.180;2022-08-19T13:50:22;35.70;;;30.00;;
11935;SDS011;6027;48.576;9.180;2022-08-19T13:52:50;34.28;;;30.60;;
11935;SDS011;6027;48.576;9.180;2022-08-19T13:55:17;35.92;;;31.05;;
11935;SDS011;6027;48.576;9.180;2022-08-19T13:57:43;34.58;;;30.95;;
11935;SDS011;6027;48.576;9.180;2022-08-19T14:00:09;34.05;;;30.45;;
11935;SDS011;6027;48.576;9.180;2022-08-19T14:02:39;35.20;;;31.42;;
11935;SDS011;6027;48.576;9.180;2022-08-19T14:05:07;35.53;;;31.75;;
11935;SDS011;6027;48.576;9.180;2022-08-19T14:07:34;33.78;;;29.83;;
11935;SDS011;6027;48.576;9.180;2022-08-19T14:10:00;33.72;;;29.65;;
11935;SDS011;6027;48.576;9.180;2022-08-19T14:12:25;32.28;;;27.42;;
11935;SDS011;6027;48.576;9.180;2022-08-19T14:14:51;29.90;;;26.83;;
11935;SDS011;6027;48.576;9.180;2022-08-19T14:17:16;30.05;;;26.90;;
11935;SDS011;6027;48.576;9.180;2022-08-19T14:19:42;29.05;;;26.20;;
11935;SDS011;6027;48.576;9.180;2022-08-19T14:22:08;29.55;;;26.58;;
11935;SDS011;6027;48.576;9.180;2022-08-19T14:24:34;30.58;;;27.48;;
11935;SDS011;6027;48.576;9.180;2022-08-19T14:27:03;31.15;;;28.08;;
11935;SDS011;6027;48.576;9.180;2022-08-19T14:29:29;30.40;;;27.38;;
11935;SDS011;6027;48.576;9.180;2022-08-19T14:31:55;30.45;;;27.35;;
11935;SDS011;6027;48.576;9.180;2022-08-19T14:34:27;32.05;;;28.10;;
11935;SDS011;6027;48.576;9.180;2022-08-19T14:36:52;31.92;;;28.65;;
11935;SDS011;6027;48.576;9.180;2022-08-19T14:39:18;31.55;;;28.10;;
11935;SDS011;6027;48.576;9.180;2022-08-19T14:41:43;31.52;;;28.27;;
11935;SDS011;6027;48.576;9.180;2022-08-19T14:44:10;36.17;;;29.05;;
11935;SDS011;6027;48.576;9.180;2022-08-19T14:46:38;31.23;;;27.30;;
11935;SDS011;6027;48.576;9.180;2022-08-19T14:49:03;30.88;;;27.77;;
11935;SDS011;6027;48.576;9.180;2022-08-19T14:51:29;31.42;;;27.80;;
11935;SDS011;6027;48.576;9.180;2022-08-19T14:53:56;30.65;;;27.40;;